National Weather Service United States Department of Commerce

American Samoa's Tropical Cyclone Outlook 2022-2023

NWS - WSO Pago Pago Office Predicts a normal to below normal Tropical Cyclone (TC) Season for 2022-23 for American Samoa Read More >


000
FTPA31 PHFO 272321
TAFSTU
TAF
NSTU 272321Z 2800/2824 12014KT P6SM VCSH SCT020 SCT040 SCT100
FM281100 10011KT P6SM VCSH SCT020 BKN040 OVC100=


000
SAZS31 NSTU 280114
MTRPPG
METAR NSTU 280050Z 13013KT 12SM SCT019 SCT040 31/27 A2982 RMK SLP100
T03070267=

METAR Formatted Surface Weather Observation  Issued: 11/27/2022 02:14:50 PM SST

NSTU Observation History

 

Significant Weather Charts